Flight Track Log - Related Links

Times and Time Zones

All times are in EDT time to prevent confusion due to time zone crossing. See the SWA378 flight status page for this flight to view local times or setup timezone preferences in your user account.

Time Position Orientation Groundspeed Altitude Reporting Facility
EDT Latitude Longitude Course Direction KTS MPH feet Rate Location/Type
Wed 10:23:29 PM 39.1500 -76.6500 115° Southeast 169 194 1,700  Level Potomac TRACON
Wed 10:25:39 PM 39.0956 -76.5008 115° Southeast 215 247 9,000 3,126 Climbing Washington Center
Wed 10:26:39 PM 39.1169 -76.3914 76° East 246 283 11,600 3,100 Climbing Washington Center
Wed 10:27:39 PM 39.1428 -76.2606 76° East 315 362 15,200 3,100 Climbing Washington Center
Wed 10:28:39 PM 39.1642 -76.1378 77° East 348 400 17,800 2,550 Climbing Washington Center
Wed 10:29:39 PM 39.1794 -75.9906 82° East 388 447 20,300 2,800 Climbing Washington Center
Wed 10:30:39 PM 39.2403 -75.8622 59° Northeast 408 470 23,400 3,050 Climbing Washington Center
Wed 10:31:39 PM 39.3197 -75.7497 48° Northeast 403 464 26,400 2,650 Climbing Washington Center
Wed 10:32:39 PM 39.4011 -75.6372 47° Northeast 408 470 28,700 1,300 Climbing Washington Center
Wed 10:33:39 PM 39.4864 -75.5189 47° Northeast 429 494 29,000 150 Climbing Washington Center
Wed 10:34:39 PM 39.5717 -75.3950 48° Northeast 447 514 29,000  Level Washington Center
Wed 10:37:00 PM 39.7833 -75.1147 45° Northeast 476 548 29,000  Level New York Center
Wed 10:37:57 PM 39.8794 -74.9989 43° Northeast 465 535 29,000  Level New York Center
Wed 10:39:00 PM 39.9336 -74.8616 45° Northeast  Level FlightAware Approximate
Wed 10:39:58 PM 40.0644 -74.7714 45° Northeast 461 531 29,000  Level New York Center
Wed 10:40:59 PM 40.1689 -74.6444 43° Northeast 456 525 29,000  Level New York Center
Wed 10:41:59 PM 40.2833 -74.5856 21° North 449 517 29,000  Level New York Center
Wed 10:43:00 PM 40.4033 -74.5458 14° North 438 504 29,000  Level New York Center
Wed 10:45:01 PM 40.6442 -74.4669 14° North 442 509 29,000 -166 Level Boston Center
Wed 10:46:01 PM 40.7614 -74.4322 13° North 432 497 28,500 -793 Descending Boston Center
Wed 10:47:02 PM 40.8747 -74.3944 14° North 421 484 27,400 -976 Descending Boston Center
Wed 10:48:04 PM 40.9794 -74.3619 13° North 421 484 26,500 -706 Descending Boston Center
Wed 10:49:01 PM 41.0883 -74.3267 14° North 410 472 26,000 -256 Descending Boston Center
Wed 10:50:01 PM 41.1994 -74.2911 14° North 405 466 26,000  Level Boston Center
Wed 10:51:02 PM 41.3147 -74.2503 15° North 399 459 26,000 -347 Level Boston Center
Wed 10:52:02 PM 41.4239 -74.1953 21° North 399 459 25,300 -1,488 Descending Boston Center
Wed 10:53:03 PM 41.5150 -74.1008 38° Northeast 406 467 23,000 -2,200 Descending Boston Center
Wed 10:54:02 PM 41.5956 -74.0083 41° Northeast 418 481 20,900 -2,118 Descending Boston Center
Wed 10:55:02 PM 41.6781 -73.9103 42° Northeast 405 466 18,800 -1,934 Descending Boston Center
Wed 10:56:03 PM 41.7689 -73.8039 41° Northeast 391 450 17,000 -1,450 Descending Boston Center
Wed 10:57:02 PM 41.8408 -73.7219 40° Northeast 385 443 15,900 -1,851 Descending Boston Center
Wed 10:57:37 PM 41.8958 -73.6617 39° Northeast 387 445 14,100 -3,051 Descending Boston Center
Wed 10:58:01 PM 41.9417 -73.6514 North 362 417 12,900 -2,364 Descending Boston Center
Wed 10:58:43 PM 42.0103 -73.6694 349° North 347 399 11,500 -1,800 Descending Boston Center
Wed 10:59:01 PM 42.0289 -73.6728 352° North 340 391 11,100 -393 Descending Boston Center
Wed 10:59:44 PM 42.0997 -73.6881 351° North 319 367 11,100 -98 Level Boston Center
Wed 11:00:02 PM 42.1164 -73.6939 345° North 335 386 11,000 -100 Descending Boston Center
Wed 11:00:44 PM 42.1850 -73.7036 354° North 303 349 11,000  Level Boston Center
Wed 11:01:02 PM 42.2119 -73.7100 350° North 324 373 11,000 -1,377 Level Boston Center
Wed 11:01:45 PM 42.2597 -73.7219 350° North 274 315 9,600 -1,748 Descending Boston Center
Wed 11:02:45 PM 42.3347 -73.7347 353° North 268 308 8,000 -1,750 Descending Boston Center
Wed 11:03:45 PM 42.4094 -73.7506 351° North 270 311 6,100 -1,884 Descending Boston Center
Wed 11:04:46 PM 42.4864 -73.7689 350° North 278 320 4,200 -1,770 Descending Boston Center
Wed 11:05:47 PM 42.5592 -73.7847 351° North 268 308 2,500 -1,033 Descending Boston Center
Wed 11:06:48 PM 42.6236 -73.7972 352° North 237 273 2,100 -469 Descending Boston Center
Wed 11:07:55 PM 42.6778 -73.8042 355° North 138 159 1,500 -619 Descending Boston Center
Wed 11:08:54 PM 42.7111 -73.8078 355° North 114 131 800 -712 Descending Boston Center

Login

Don't have an account? Register now (free) for customized features, flight alerts, and more!